Time;durP1;ratioP1;P1;durP2;ratioP2;P2;SDS_P1;SDS_P2;PMS_P1;PMS_P2;Temp;Humidity;BMP_temperature;BMP_pressure;BME280_temperature;BME280_humidity;BME280_pressure;Samples;Min_cycle;Max_cycle;Signal;HPM_P1;HPM_P2
2023/11/23 00:00:14;;;;;;;0.67;0.67;;;12.50;99.90;;;;;;5003389;28;20253;-83
2023/11/23 00:02:40;;;;;;;1.20;1.07;;;12.50;99.90;;;;;;5002703;28;20663;-84
2023/11/23 00:05:09;;;;;;;1.20;0.73;;;12.50;99.90;;;;;;5021498;28;20194;-84
2023/11/23 00:07:35;;;;;;;1.43;0.87;;;12.60;99.90;;;;;;5019832;28;20226;-83
2023/11/23 00:10:04;;;;;;;1.17;0.83;;;12.50;99.90;;;;;;4995776;28;20624;-83
2023/11/23 00:12:30;;;;;;;0.40;0.40;;;12.60;99.90;;;;;;5020439;28;20564;-83
2023/11/23 00:14:56;;;;;;;1.03;1.03;;;12.60;99.90;;;;;;5021467;28;20272;-83
2023/11/23 00:17:22;;;;;;;4.53;1.13;;;12.60;99.90;;;;;;4994905;28;20253;-84
2023/11/23 00:19:47;;;;;;;1.40;1.37;;;12.70;99.90;;;;;;5000081;28;20223;-84
2023/11/23 00:22:15;;;;;;;3.80;1.33;;;12.60;99.90;;;;;;5002965;28;20492;-83
2023/11/23 00:24:41;;;;;;;0.30;0.30;;;12.60;99.90;;;;;;5019486;28;20229;-84
2023/11/23 00:27:06;;;;;;;11.60;1.17;;;12.60;99.90;;;;;;5003910;28;20674;-84
2023/11/23 00:29:32;;;;;;;0.30;0.30;;;12.50;99.90;;;;;;5020561;28;20268;-83
2023/11/23 00:31:58;;;;;;;1.03;0.50;;;12.60;99.90;;;;;;4987553;28;20913;-84
2023/11/23 00:34:24;;;;;;;0.70;0.50;;;12.60;99.90;;;;;;5009567;28;20218;-83
2023/11/23 00:36:49;;;;;;;0.40;0.40;;;12.60;99.90;;;;;;5001968;28;20218;-82
2023/11/23 00:39:15;;;;;;;1.23;0.43;;;12.60;99.90;;;;;;5003292;28;20277;-83
2023/11/23 00:41:41;;;;;;;14.27;3.03;;;12.50;99.90;;;;;;5006484;28;20245;-84
2023/11/23 00:44:07;;;;;;;4.83;1.73;;;12.50;99.90;;;;;;5023250;28;20555;-84
2023/11/23 00:46:36;;;;;;;1.03;0.40;;;12.40;99.90;;;;;;4991150;28;20319;-83
2023/11/23 00:49:03;;;;;;;3.00;1.50;;;12.40;99.90;;;;;;5007748;28;21127;-83
2023/11/23 00:51:29;;;;;;;0.87;0.70;;;12.30;99.90;;;;;;5006788;28;20215;-83
2023/11/23 00:53:55;;;;;;;1.40;0.23;;;12.40;99.90;;;;;;5006890;28;20241;-83
2023/11/23 00:56:22;;;;;;;2.37;1.07;;;12.40;99.90;;;;;;5007277;28;20277;-83
2023/11/23 00:58:48;;;;;;;8.10;1.50;;;12.30;99.90;;;;;;5006615;28;20458;-84
2023/11/23 01:01:17;;;;;;;1.70;1.60;;;12.30;99.90;;;;;;5002602;28;20211;-82
2023/11/23 01:03:44;;;;;;;1.67;1.17;;;12.20;99.90;;;;;;4986608;28;20675;-83
2023/11/23 01:06:10;;;;;;;0.47;0.47;;;12.20;99.90;;;;;;4970772;28;20679;-83
2023/11/23 01:08:36;;;;;;;10.60;0.77;;;12.10;99.90;;;;;;4986319;28;20651;-84
2023/11/23 01:11:02;;;;;;;2.87;2.00;;;12.20;99.90;;;;;;5004119;28;20262;-82
2023/11/23 01:13:29;;;;;;;1.60;0.77;;;12.10;99.90;;;;;;4986443;28;20215;-83
2023/11/23 01:15:58;;;;;;;0.57;0.57;;;12.10;99.90;;;;;;4977877;28;20223;-84
2023/11/23 01:18:24;;;;;;;0.60;0.60;;;12.10;99.90;;;;;;4954475;28;20698;-83
2023/11/23 01:20:52;;;;;;;1.60;1.27;;;12.10;99.90;;;;;;4985938;28;20230;-83
2023/11/23 01:23:18;;;;;;;3.37;1.30;;;12.10;99.90;;;;;;4970922;28;20226;-83
2023/11/23 01:25:45;;;;;;;6.93;1.30;;;12.00;99.90;;;;;;4986342;28;20215;-82
2023/11/23 01:28:12;;;;;;;10.80;0.73;;;12.00;99.90;;;;;;4985490;28;20212;-82
2023/11/23 01:30:38;;;;;;;1.27;0.40;;;12.10;99.90;;;;;;4985585;28;20586;-83
2023/11/23 01:33:04;;;;;;;0.83;0.33;;;12.00;99.90;;;;;;4970139;28;20218;-82
2023/11/23 01:35:29;;;;;;;0.33;0.33;;;12.00;99.90;;;;;;4987039;28;20199;-82
2023/11/23 01:37:55;;;;;;;1.13;1.03;;;12.00;99.90;;;;;;5002269;28;20215;-82
2023/11/23 01:40:21;;;;;;;1.13;1.03;;;12.00;99.90;;;;;;4967359;28;20771;-83
2023/11/23 01:42:47;;;;;;;0.20;0.20;;;12.10;99.90;;;;;;4974948;28;20227;-83
2023/11/23 01:45:13;;;;;;;1.80;0.93;;;12.00;99.90;;;;;;4967202;28;20491;-82
2023/11/23 01:47:44;;;;;;;0.93;0.87;;;12.00;99.90;;;;;;4974170;28;20192;-83
2023/11/23 01:50:10;;;;;;;1.43;1.33;;;12.00;99.90;;;;;;4966742;28;20615;-83
2023/11/23 01:52:36;;;;;;;3.70;2.30;;;12.00;99.90;;;;;;5001279;28;20215;-84
2023/11/23 01:55:05;;;;;;;1.03;0.77;;;12.00;99.90;;;;;;4995664;28;20219;-83
2023/11/23 01:57:36;;;;;;;0.70;0.70;;;12.00;99.90;;;;;;4984393;28;20718;-83
2023/11/23 02:00:03;;;;;;;0.53;0.43;;;12.10;99.90;;;;;;5005689;28;20304;-83
2023/11/23 02:02:30;;;;;;;0.77;0.60;;;12.00;99.90;;;;;;5021555;28;20216;-82
2023/11/23 02:04:59;;;;;;;0.20;0.20;;;12.10;99.90;;;;;;5005806;28;20929;-83
2023/11/23 02:07:25;;;;;;;4.10;0.97;;;12.10;99.90;;;;;;5020520;28;20218;-84
2023/11/23 02:09:51;;;;;;;0.73;0.73;;;12.10;99.90;;;;;;5021745;28;20230;-83
2023/11/23 02:12:18;;;;;;;0.40;0.40;;;12.10;99.90;;;;;;5005601;28;20234;-82
2023/11/23 02:14:44;;;;;;;0.30;0.30;;;12.10;99.90;;;;;;4998944;28;20238;-82
2023/11/23 02:17:20;;;;;;;0.47;0.47;;;12.10;99.90;;;;;;5005560;28;20196;-83
2023/11/23 02:19:47;;;;;;;2.43;0.60;;;12.10;99.90;;;;;;5005348;28;20260;-82
2023/11/23 02:22:14;;;;;;;10.53;2.90;;;12.10;99.90;;;;;;5020245;28;20253;-82
2023/11/23 02:24:41;;;;;;;1.70;0.50;;;12.20;99.90;;;;;;5021499;28;20479;-83
2023/11/23 02:27:08;;;;;;;4.43;2.63;;;12.10;99.90;;;;;;4983015;28;20227;-83
2023/11/23 02:29:34;;;;;;;1.53;1.00;;;12.10;99.90;;;;;;4986731;28;20203;-83
2023/11/23 02:32:06;;;;;;;0.87;0.77;;;12.10;99.90;;;;;;5005962;28;20243;-83
2023/11/23 02:34:33;;;;;;;1.23;1.13;;;12.20;99.90;;;;;;5003695;28;20225;-82
2023/11/23 02:36:58;;;;;;;2.60;0.60;;;12.20;99.90;;;;;;5003777;28;20418;-83
2023/11/23 02:39:24;;;;;;;0.87;0.70;;;12.10;99.90;;;;;;5004484;28;20226;-83
2023/11/23 02:41:50;;;;;;;0.33;0.33;;;12.20;99.90;;;;;;4996965;28;20709;-83
2023/11/23 02:44:15;;;;;;;1.10;0.60;;;12.20;99.90;;;;;;5005725;28;20201;-83
2023/11/23 02:46:41;;;;;;;0.40;0.40;;;12.20;99.90;;;;;;5003862;28;20218;-82
2023/11/23 02:49:07;;;;;;;0.50;0.50;;;12.10;99.90;;;;;;5003714;28;20222;-83
2023/11/23 02:51:33;;;;;;;1.67;0.67;;;12.20;99.90;;;;;;4988052;28;20697;-84
2023/11/23 02:53:59;;;;;;;0.20;0.20;;;12.10;99.90;;;;;;5003664;28;20226;-82
2023/11/23 02:56:24;;;;;;;0.50;0.50;;;12.10;99.90;;;;;;4988747;28;20183;-82
2023/11/23 02:58:51;;;;;;;0.77;0.77;;;12.10;99.90;;;;;;4986534;28;20726;-82
2023/11/23 03:01:18;;;;;;;1.23;0.80;;;12.20;99.90;;;;;;4968749;28;20227;-83
2023/11/23 03:03:44;;;;;;;1.60;0.83;;;12.20;99.90;;;;;;4989382;28;20225;-82
2023/11/23 03:06:10;;;;;;;13.60;0.80;;;12.10;99.90;;;;;;4976732;28;20219;-82
2023/11/23 03:08:36;;;;;;;10.73;1.00;;;12.10;99.90;;;;;;4989114;28;20655;-82
2023/11/23 03:11:01;;;;;;;17.03;1.60;;;12.10;99.90;;;;;;4965834;28;20192;-83
2023/11/23 03:13:27;;;;;;;3.83;0.70;;;12.10;99.90;;;;;;4981835;28;20231;-82
2023/11/23 03:15:53;;;;;;;2.60;2.00;;;12.10;99.90;;;;;;4984454;28;20227;-82
2023/11/23 03:18:19;;;;;;;0.50;0.40;;;12.10;99.90;;;;;;4965233;28;20231;-82
2023/11/23 03:20:45;;;;;;;1.40;1.40;;;12.20;99.90;;;;;;4966837;28;20734;-82
2023/11/23 03:23:12;;;;;;;0.73;0.43;;;12.20;99.90;;;;;;5000213;28;20195;-82
2023/11/23 03:25:38;;;;;;;0.40;0.40;;;12.20;99.90;;;;;;4999103;28;20230;-83
2023/11/23 03:28:06;;;;;;;5.70;1.70;;;12.20;99.90;;;;;;4982868;28;20346;-82
2023/11/23 03:30:33;;;;;;;5.70;2.23;;;12.20;99.90;;;;;;4982601;28;20304;-82
2023/11/23 03:32:59;;;;;;;0.30;0.30;;;12.10;99.90;;;;;;4981958;28;20412;-82
2023/11/23 03:35:24;;;;;;;0.77;0.77;;;12.20;99.90;;;;;;4982608;28;20654;-82
2023/11/23 03:37:50;;;;;;;5.73;0.80;;;12.20;99.90;;;;;;4983301;28;20218;-83
2023/11/23 03:40:16;;;;;;;1.23;1.23;;;12.10;99.90;;;;;;4999840;28;20302;-82
2023/11/23 03:42:44;;;;;;;3.20;0.67;;;12.10;99.90;;;;;;4968303;28;20679;-82
2023/11/23 03:45:10;;;;;;;5.07;1.57;;;12.10;99.90;;;;;;4983940;28;20233;-81
2023/11/23 03:47:36;;;;;;;0.37;0.37;;;12.10;99.90;;;;;;4998818;28;20761;-82
2023/11/23 03:50:02;;;;;;;4.03;1.13;;;12.20;99.90;;;;;;4984101;28;20191;-83
2023/11/23 03:52:27;;;;;;;4.33;0.67;;;12.30;99.90;;;;;;4983547;28;20223;-82
2023/11/23 03:54:53;;;;;;;1.20;0.87;;;12.20;99.90;;;;;;4983803;28;20219;-83
2023/11/23 03:57:19;;;;;;;0.90;0.37;;;12.20;99.90;;;;;;4999929;28;20242;-83
2023/11/23 03:59:45;;;;;;;6.27;1.60;;;12.20;99.90;;;;;;4983328;28;20715;-84
2023/11/23 04:02:10;;;;;;;2.73;0.93;;;12.20;99.90;;;;;;4984097;28;20187;-83
2023/11/23 04:04:38;;;;;;;1.03;1.03;;;12.20;99.90;;;;;;4983752;28;21310;-82
2023/11/23 04:07:03;;;;;;;1.33;0.87;;;12.20;99.90;;;;;;5000314;28;20223;-82
2023/11/23 04:09:29;;;;;;;0.87;0.87;;;12.20;99.90;;;;;;4983916;28;20787;-82
2023/11/23 04:11:55;;;;;;;0.50;0.50;;;12.20;99.90;;;;;;4983708;28;20315;-82
2023/11/23 04:14:21;;;;;;;3.40;1.10;;;12.20;99.90;;;;;;4969819;28;20318;-82
2023/11/23 04:16:47;;;;;;;0.17;0.17;;;12.20;99.90;;;;;;4971849;28;20495;-83
2023/11/23 04:19:13;;;;;;;1.77;1.57;;;12.30;99.90;;;;;;5004121;28;20239;-83
2023/11/23 04:21:39;;;;;;;11.90;0.83;;;12.20;99.90;;;;;;4987909;28;20230;-83
2023/11/23 04:24:05;;;;;;;4.00;1.03;;;12.20;99.90;;;;;;4960901;28;20220;-83
2023/11/23 04:26:31;;;;;;;2.93;1.10;;;12.30;99.90;;;;;;4987436;28;20187;-83
2023/11/23 04:28:57;;;;;;;2.43;1.10;;;12.30;99.90;;;;;;4971909;28;20272;-83
2023/11/23 04:31:26;;;;;;;1.73;1.60;;;12.30;99.90;;;;;;4988238;28;20215;-83
2023/11/23 04:33:51;;;;;;;0.70;0.70;;;12.20;99.90;;;;;;4987020;28;20458;-83
2023/11/23 04:36:17;;;;;;;1.07;0.87;;;12.30;99.90;;;;;;4987015;28;20226;-83
2023/11/23 04:38:43;;;;;;;3.07;1.67;;;12.30;99.90;;;;;;4987179;28;20312;-83
2023/11/23 04:41:09;;;;;;;0.80;0.80;;;12.30;99.90;;;;;;4986735;28;20709;-83
2023/11/23 04:43:34;;;;;;;0.60;0.60;;;12.20;99.90;;;;;;4987049;28;20269;-83
2023/11/23 04:46:00;;;;;;;0.30;0.30;;;12.30;99.90;;;;;;4954732;28;20581;-83
2023/11/23 04:48:26;;;;;;;0.40;0.40;;;12.20;99.90;;;;;;4996919;28;20668;-82
2023/11/23 04:50:52;;;;;;;4.57;0.80;;;12.20;99.90;;;;;;4977557;28;20249;-82
2023/11/23 04:53:18;;;;;;;2.83;1.50;;;12.30;99.90;;;;;;4981154;28;20636;-83
2023/11/23 04:55:43;;;;;;;2.17;0.57;;;12.20;99.90;;;;;;4987796;28;20847;-83
2023/11/23 04:58:09;;;;;;;3.90;1.87;;;12.20;99.90;;;;;;5019832;28;20238;-83
2023/11/23 05:00:35;;;;;;;3.83;0.97;;;12.30;99.90;;;;;;5022972;28;20270;-82
2023/11/23 05:03:01;;;;;;;0.87;0.60;;;12.20;99.90;;;;;;4995523;28;20266;-82
2023/11/23 05:05:27;;;;;;;0.73;0.30;;;12.20;99.90;;;;;;5022085;28;20644;-82
2023/11/23 05:07:53;;;;;;;1.40;1.30;;;12.20;99.90;;;;;;5014571;28;20190;-81
2023/11/23 05:10:20;;;;;;;1.50;0.87;;;12.20;99.90;;;;;;5006607;28;20214;-81
2023/11/23 05:12:45;;;;;;;1.80;1.27;;;12.10;99.90;;;;;;5005905;28;20219;-82
2023/11/23 05:15:11;;;;;;;3.73;0.37;;;12.20;99.90;;;;;;5006329;28;20619;-84
2023/11/23 05:17:37;;;;;;;3.37;1.23;;;12.20;99.90;;;;;;5005288;28;20957;-83
2023/11/23 05:20:04;;;;;;;1.83;1.73;;;12.30;99.90;;;;;;5023473;28;20190;-79
2023/11/23 05:22:29;;;;;;;0.50;0.50;;;12.30;99.90;;;;;;5014292;28;20269;-82
2023/11/23 05:24:56;;;;;;;2.63;0.60;;;12.30;99.90;;;;;;5021765;28;20230;-83
2023/11/23 05:27:21;;;;;;;1.10;1.00;;;12.30;99.90;;;;;;5006238;28;20221;-82
2023/11/23 05:29:47;;;;;;;1.33;0.90;;;12.40;99.90;;;;;;4997418;28;20218;-82
2023/11/23 05:32:13;;;;;;;4.37;0.63;;;12.30;99.90;;;;;;5022657;28;20202;-82
2023/11/23 05:34:39;;;;;;;1.03;1.03;;;12.30;99.90;;;;;;5006361;28;20695;-82
2023/11/23 05:37:04;;;;;;;9.43;1.23;;;12.30;99.90;;;;;;5037051;28;20232;-82
2023/11/23 05:39:30;;;;;;;0.87;0.87;;;12.30;99.90;;;;;;5004857;28;20694;-82
2023/11/23 05:41:56;;;;;;;0.53;0.53;;;12.30;99.90;;;;;;4989713;28;20707;-82
2023/11/23 05:44:22;;;;;;;1.07;1.07;;;12.30;99.90;;;;;;4997886;28;20222;-82
2023/11/23 05:46:47;;;;;;;0.40;0.40;;;12.30;99.90;;;;;;4986649;28;20789;-82
2023/11/23 05:49:13;;;;;;;1.80;0.63;;;12.40;99.90;;;;;;5017043;28;20750;-82
2023/11/23 05:51:39;;;;;;;0.20;0.20;;;12.40;99.90;;;;;;4982808;28;20694;-82
2023/11/23 05:54:05;;;;;;;1.60;1.23;;;12.40;99.90;;;;;;5007965;28;20643;-84
2023/11/23 05:56:31;;;;;;;13.73;1.83;;;12.40;99.90;;;;;;5022373;28;20191;-81
2023/11/23 05:58:57;;;;;;;2.10;1.23;;;12.30;99.90;;;;;;5004366;28;20448;-82
2023/11/23 06:01:22;;;;;;;2.90;0.57;;;12.40;99.90;;;;;;5008637;28;20676;-82
2023/11/23 06:03:49;;;;;;;2.30;0.83;;;12.40;99.90;;;;;;4989551;28;20297;-81
2023/11/23 06:06:19;;;;;;;5.03;0.50;;;12.40;99.90;;;;;;5009376;28;20215;-80
2023/11/23 06:08:46;;;;;;;12.00;1.07;;;12.40;99.90;;;;;;5020621;28;20569;-84
2023/11/23 06:11:12;;;;;;;0.20;0.20;;;12.40;99.90;;;;;;5022484;28;20179;-82
2023/11/23 06:13:38;;;;;;;0.50;0.30;;;12.40;99.90;;;;;;4995931;28;20236;-83
2023/11/23 06:16:04;;;;;;;1.43;0.90;;;12.40;99.90;;;;;;5022088;28;20218;-85
2023/11/23 06:18:30;;;;;;;0.70;0.60;;;12.40;99.90;;;;;;5022189;28;20683;-81
2023/11/23 06:20:56;;;;;;;1.33;1.13;;;12.40;99.90;;;;;;4994948;28;20297;-82
2023/11/23 06:23:22;;;;;;;0.37;0.37;;;12.40;99.90;;;;;;5005696;28;20183;-83
2023/11/23 06:25:48;;;;;;;0.40;0.40;;;12.40;99.90;;;;;;5020496;28;20256;-82
2023/11/23 06:28:15;;;;;;;2.10;2.00;;;12.40;99.90;;;;;;5021418;28;20595;-83
2023/11/23 06:30:41;;;;;;;2.57;1.30;;;12.40;99.90;;;;;;5005140;28;20249;-82
2023/11/23 06:33:06;;;;;;;0.50;0.43;;;12.40;99.90;;;;;;5020950;28;20857;-84
2023/11/23 06:35:32;;;;;;;0.53;0.53;;;12.40;99.90;;;;;;5004868;28;20187;-82
2023/11/23 06:37:58;;;;;;;8.50;1.20;;;12.30;99.90;;;;;;5020302;28;20229;-83
2023/11/23 06:40:23;;;;;;;1.17;0.63;;;12.40;99.90;;;;;;5005051;28;20222;-85
2023/11/23 06:42:49;;;;;;;0.30;0.30;;;12.40;99.90;;;;;;5022569;28;20223;-83
2023/11/23 06:45:16;;;;;;;0.93;0.40;;;12.40;99.90;;;;;;5004076;28;20214;-84
2023/11/23 06:47:42;;;;;;;0.40;0.40;;;12.50;99.90;;;;;;5020075;28;20194;-83
2023/11/23 06:50:08;;;;;;;5.03;0.63;;;12.50;99.90;;;;;;5020570;28;20548;-83
2023/11/23 06:52:34;;;;;;;3.33;1.03;;;12.50;99.90;;;;;;5020162;28;20279;-84
2023/11/23 06:55:01;;;;;;;3.87;1.40;;;12.50;99.90;;;;;;5004369;28;20301;-83
2023/11/23 06:57:27;;;;;;;0.83;0.60;;;12.50;99.90;;;;;;5020904;28;20292;-80
2023/11/23 06:59:53;;;;;;;1.90;1.80;;;12.50;99.90;;;;;;5020665;28;20261;-83
2023/11/23 07:02:19;;;;;;;0.77;0.57;;;12.60;99.90;;;;;;5005649;28;20183;-85
2023/11/23 07:04:45;;;;;;;0.60;0.60;;;12.50;99.90;;;;;;5004186;28;20650;-83
2023/11/23 07:07:10;;;;;;;1.30;1.03;;;12.60;99.90;;;;;;5003405;28;20313;-83
2023/11/23 07:09:36;;;;;;;1.83;0.83;;;12.60;99.90;;;;;;5003188;28;20238;-82
2023/11/23 07:12:02;;;;;;;6.33;0.63;;;12.60;99.90;;;;;;5002906;28;20231;-82
2023/11/23 07:14:28;;;;;;;0.93;0.93;;;12.50;99.90;;;;;;5018280;28;20190;-85
2023/11/23 07:16:55;;;;;;;1.07;0.40;;;12.50;99.90;;;;;;5021144;28;20194;-85
2023/11/23 07:19:21;;;;;;;5.47;1.00;;;12.60;99.90;;;;;;4996813;28;20249;-87
2023/11/23 07:21:50;;;;;;;3.70;1.80;;;12.50;99.90;;;;;;5002916;28;20223;-82
2023/11/23 07:24:16;;;;;;;0.80;0.70;;;12.50;99.90;;;;;;5017596;28;20222;-82
2023/11/23 07:26:42;;;;;;;0.87;0.47;;;12.50;99.90;;;;;;5003109;28;20218;-84
2023/11/23 07:29:08;;;;;;;1.03;0.97;;;12.50;99.90;;;;;;5004736;28;20199;-83
2023/11/23 07:31:34;;;;;;;0.70;0.70;;;12.50;99.90;;;;;;5001349;28;20686;-83
2023/11/23 07:34:00;;;;;;;9.93;1.80;;;12.50;99.90;;;;;;4996048;28;20222;-81
2023/11/23 07:36:26;;;;;;;0.23;0.23;;;12.50;99.90;;;;;;5010901;28;20392;-84
2023/11/23 07:38:52;;;;;;;0.50;0.50;;;12.60;99.90;;;;;;5000873;28;20295;-84
2023/11/23 07:41:18;;;;;;;2.20;1.53;;;12.70;99.90;;;;;;5017766;28;20642;-83
2023/11/23 07:43:46;;;;;;;5.13;2.17;;;12.90;99.90;;;;;;5006671;28;20241;-84
2023/11/23 07:46:12;;;;;;;0.83;0.50;;;13.10;99.90;;;;;;5006210;28;20309;-85
2023/11/23 07:48:38;;;;;;;1.07;0.90;;;13.30;99.90;;;;;;4996224;28;20226;-82
2023/11/23 07:51:04;;;;;;;4.43;0.77;;;13.40;99.90;;;;;;5003351;28;20256;-84
2023/11/23 07:53:30;;;;;;;2.63;0.83;;;13.50;99.90;;;;;;5002101;28;20191;-85
2023/11/23 07:55:59;;;;;;;1.57;0.87;;;13.60;99.90;;;;;;5004141;28;20261;-85
2023/11/23 07:58:25;;;;;;;2.80;0.70;;;13.50;99.90;;;;;;5043085;28;20247;-85
2023/11/23 08:00:52;;;;;;;0.80;0.80;;;13.40;99.90;;;;;;5002090;28;20650;-85
2023/11/23 08:03:18;;;;;;;0.97;0.97;;;13.20;99.90;;;;;;5006592;28;20226;-86
2023/11/23 08:05:45;;;;;;;0.83;0.57;;;13.20;99.90;;;;;;4986277;28;20223;-84
2023/11/23 08:08:11;;;;;;;1.40;1.17;;;13.10;99.90;;;;;;5019735;28;20205;-84
2023/11/23 08:10:37;;;;;;;0.53;0.53;;;13.10;99.90;;;;;;5018947;28;20223;-83
2023/11/23 08:13:04;;;;;;;0.63;0.60;;;13.10;99.90;;;;;;5021131;28;20219;-83
2023/11/23 08:15:29;;;;;;;0.20;0.20;;;13.10;99.90;;;;;;5012897;28;20344;-85
2023/11/23 08:17:56;;;;;;;0.63;0.63;;;13.00;99.90;;;;;;5018661;28;20298;-84
2023/11/23 08:20:23;;;;;;;2.60;2.40;;;13.10;99.90;;;;;;4998634;28;20543;-84
2023/11/23 08:22:49;;;;;;;0.80;0.80;;;13.10;99.90;;;;;;5002630;28;20215;-81
2023/11/23 08:25:15;;;;;;;5.50;0.93;;;13.10;99.90;;;;;;5002312;28;20221;-83
2023/11/23 08:27:41;;;;;;;1.90;1.10;;;13.10;99.90;;;;;;5019322;28;20706;-81
2023/11/23 08:30:07;;;;;;;0.40;0.40;;;13.10;99.90;;;;;;5034849;28;20321;-82
2023/11/23 08:32:33;;;;;;;1.23;1.23;;;13.10;99.90;;;;;;5002417;28;20195;-83
2023/11/23 08:35:03;;;;;;;1.53;1.00;;;13.20;99.90;;;;;;5018876;28;20191;-83
2023/11/23 08:37:29;;;;;;;4.03;1.20;;;13.20;99.90;;;;;;5017512;28;20230;-82
2023/11/23 08:39:55;;;;;;;3.80;2.07;;;13.20;99.90;;;;;;5018604;28;20222;-83
2023/11/23 08:42:21;;;;;;;6.20;3.03;;;13.20;99.90;;;;;;5017877;28;20238;-84
2023/11/23 08:44:47;;;;;;;1.53;0.60;;;13.20;99.90;;;;;;5001293;28;20222;-83
2023/11/23 08:47:13;;;;;;;0.83;0.83;;;13.20;99.90;;;;;;5000300;28;20194;-84
2023/11/23 08:49:41;;;;;;;3.80;1.40;;;13.20;99.90;;;;;;5018140;28;20230;-83
2023/11/23 08:52:07;;;;;;;1.70;0.63;;;13.20;99.90;;;;;;5017363;28;20249;-83
2023/11/23 08:54:34;;;;;;;3.83;0.93;;;13.20;99.90;;;;;;5019400;28;20239;-83
2023/11/23 08:57:01;;;;;;;4.23;0.73;;;13.20;99.90;;;;;;5001808;28;20785;-83
2023/11/23 08:59:27;;;;;;;2.47;2.30;;;13.20;99.90;;;;;;5002745;28;20246;-82
2023/11/23 09:01:52;;;;;;;0.60;0.60;;;13.20;99.90;;;;;;5004423;28;20183;-85
2023/11/23 09:04:18;;;;;;;27.47;1.37;;;13.20;99.90;;;;;;5021979;28;20705;-83
2023/11/23 09:06:44;;;;;;;2.80;1.67;;;13.20;99.90;;;;;;5022048;28;20576;-83
2023/11/23 09:09:12;;;;;;;0.70;0.70;;;13.20;99.90;;;;;;5021541;28;20297;-83
2023/11/23 09:11:38;;;;;;;2.80;0.47;;;13.30;99.90;;;;;;5021395;28;20639;-84
2023/11/23 09:14:04;;;;;;;1.07;1.07;;;13.30;99.90;;;;;;5007344;28;20209;-82
2023/11/23 09:16:30;;;;;;;6.73;1.50;;;13.30;99.90;;;;;;5023213;28;20223;-85
2023/11/23 09:18:56;;;;;;;0.77;0.70;;;13.30;99.90;;;;;;5007306;28;20230;-87
2023/11/23 09:21:21;;;;;;;0.83;0.50;;;13.30;99.90;;;;;;5023094;28;20219;-86
2023/11/23 09:23:47;;;;;;;0.63;0.63;;;13.40;99.90;;;;;;5005801;28;20223;-84
2023/11/23 09:26:13;;;;;;;3.03;1.23;;;13.50;99.90;;;;;;5001946;28;20218;-85
2023/11/23 09:28:39;;;;;;;1.70;1.10;;;13.60;99.90;;;;;;5005192;28;20280;-86
2023/11/23 09:31:08;;;;;;;3.00;0.73;;;13.70;99.90;;;;;;5022144;28;20230;-84
2023/11/23 09:33:34;;;;;;;1.00;1.00;;;13.80;99.90;;;;;;5039304;28;20780;-82
2023/11/23 09:36:02;;;;;;;1.77;1.67;;;13.80;99.90;;;;;;5006157;28;20264;-85
2023/11/23 09:38:28;;;;;;;0.53;0.53;;;13.80;99.90;;;;;;5010619;28;20250;-84
2023/11/23 09:41:01;;;;;;;1.60;0.50;;;13.80;99.90;;;;;;5018331;28;20415;-86
2023/11/23 09:43:29;;;;;;;5.30;0.80;;;13.80;99.90;;;;;;5007026;28;20310;-86
2023/11/23 09:45:56;;;;;;;4.03;1.20;;;13.60;99.90;;;;;;5022708;28;20218;-85
2023/11/23 09:48:23;;;;;;;7.23;2.60;;;13.60;99.90;;;;;;5012932;28;20234;-86
2023/11/23 09:50:50;;;;;;;0.43;0.43;;;13.50;99.90;;;;;;5024101;28;20256;-84
2023/11/23 09:53:17;;;;;;;4.33;0.83;;;13.50;99.90;;;;;;5022783;28;20728;-86
2023/11/23 09:55:43;;;;;;;1.90;1.07;;;13.40;99.90;;;;;;5014794;28;20421;-83
2023/11/23 09:58:09;;;;;;;0.40;0.40;;;13.50;99.90;;;;;;5007184;28;20246;-83
2023/11/23 10:00:35;;;;;;;0.80;0.73;;;13.50;99.90;;;;;;4985472;28;20231;-84
2023/11/23 10:03:07;;;;;;;2.53;1.17;;;13.50;99.90;;;;;;4968497;28;20223;-86
2023/11/23 10:05:33;;;;;;;2.53;0.77;;;13.50;99.90;;;;;;4989819;28;20186;-85
2023/11/23 10:07:59;;;;;;;16.30;2.33;;;13.60;99.90;;;;;;4964996;28;20599;-86
2023/11/23 10:10:27;;;;;;;2.53;1.67;;;13.70;99.90;;;;;;4994669;28;20213;-85
2023/11/23 10:12:55;;;;;;;2.07;0.90;;;13.70;99.90;;;;;;4965232;28;20223;-84
2023/11/23 10:15:21;;;;;;;0.57;0.57;;;13.80;99.90;;;;;;4985819;28;20223;-85
2023/11/23 10:17:47;;;;;;;1.40;1.20;;;13.80;99.90;;;;;;4981686;28;20615;-85
2023/11/23 10:20:17;;;;;;;1.83;1.73;;;13.70;99.90;;;;;;4969872;28;20276;-85
2023/11/23 10:22:44;;;;;;;1.90;1.40;;;13.70;99.90;;;;;;4984835;28;20479;-83
2023/11/23 10:25:24;;;;;;;17.67;1.43;;;13.60;99.90;;;;;;5002653;28;20210;-84
2023/11/23 10:27:50;;;;;;;17.13;1.17;;;13.50;99.90;;;;;;4968887;28;20302;-83
2023/11/23 10:30:16;;;;;;;0.93;0.93;;;13.40;99.90;;;;;;4985486;28;20223;-86
2023/11/23 10:32:42;;;;;;;1.60;0.80;;;13.30;99.90;;;;;;4969891;28;23821;-85
2023/11/23 10:35:10;;;;;;;0.53;0.53;;;13.30;99.90;;;;;;4986203;28;20188;-84
2023/11/23 10:37:38;;;;;;;0.87;0.87;;;13.30;99.90;;;;;;4977901;28;20238;-85
2023/11/23 10:40:07;;;;;;;1.80;1.37;;;13.40;99.90;;;;;;4973950;28;20234;-83
2023/11/23 10:42:35;;;;;;;3.83;1.73;;;13.50;99.90;;;;;;4985313;28;20250;-85
2023/11/23 10:45:02;;;;;;;2.93;0.77;;;13.50;99.90;;;;;;4968113;28;20222;-83
2023/11/23 10:47:29;;;;;;;1.30;0.87;;;13.60;99.90;;;;;;5001852;28;20203;-85
2023/11/23 10:49:57;;;;;;;0.50;0.50;;;13.60;99.90;;;;;;4984774;28;20188;-85
2023/11/23 10:52:24;;;;;;;7.73;0.80;;;13.60;99.90;;;;;;4984737;28;20254;-86
2023/11/23 10:54:50;;;;;;;2.63;1.47;;;13.60;99.90;;;;;;4985467;28;20548;-84
2023/11/23 10:57:17;;;;;;;5.87;1.50;;;13.70;99.90;;;;;;4951679;28;20630;-85
2023/11/23 10:59:46;;;;;;;2.30;0.50;;;13.80;99.90;;;;;;4984806;28;20238;-82
2023/11/23 11:02:13;;;;;;;1.13;0.97;;;13.80;99.90;;;;;;4984120;28;20184;-83
2023/11/23 11:04:40;;;;;;;0.50;0.50;;;13.80;99.90;;;;;;4983743;28;20218;-84
2023/11/23 11:07:08;;;;;;;0.60;0.40;;;13.80;99.90;;;;;;4983095;28;20238;-83
2023/11/23 11:09:34;;;;;;;4.87;0.77;;;13.80;99.90;;;;;;4998836;28;20785;-82
2023/11/23 11:12:03;;;;;;;0.57;0.57;;;13.80;99.90;;;;;;4973848;28;20238;-83
2023/11/23 11:14:36;;;;;;;4.63;1.07;;;13.80;99.90;;;;;;4992157;28;20302;-83
2023/11/23 11:17:04;;;;;;;2.00;0.57;;;13.90;99.90;;;;;;4999842;28;20223;-82
2023/11/23 11:19:47;;;;;;;5.83;1.13;;;13.90;99.90;;;;;;4964381;28;20298;-83
2023/11/23 11:22:13;;;;;;;0.47;0.47;;;13.90;99.90;;;;;;4984599;28;21309;-85
2023/11/23 11:24:44;;;;;;;3.50;2.07;;;13.90;99.90;;;;;;4998530;28;20219;-82
2023/11/23 11:27:12;;;;;;;0.40;0.40;;;13.90;99.90;;;;;;4983419;28;20242;-84
2023/11/23 11:29:47;;;;;;;0.57;0.57;;;13.90;99.90;;;;;;4997666;28;20248;-81
2023/11/23 11:32:15;;;;;;;0.77;0.63;;;13.90;99.90;;;;;;5014387;28;20175;-84
2023/11/23 11:34:40;;;;;;;11.13;1.37;;;13.90;99.90;;;;;;4999784;28;20351;-84
2023/11/23 11:37:07;;;;;;;3.87;2.50;;;13.90;99.90;;;;;;4973681;28;20215;-82
2023/11/23 11:39:39;;;;;;;1.30;1.20;;;13.90;99.90;;;;;;4999323;28;20231;-82
2023/11/23 11:42:06;;;;;;;0.60;0.60;;;13.90;99.90;;;;;;4999355;28;20552;-81
2023/11/23 11:44:33;;;;;;;1.70;0.83;;;13.90;99.90;;;;;;4990123;28;20187;-82
2023/11/23 11:47:00;;;;;;;2.53;1.07;;;14.00;99.90;;;;;;4999831;28;20223;-82
2023/11/23 11:49:27;;;;;;;3.17;1.10;;;14.00;99.90;;;;;;4981397;28;20211;-81
2023/11/23 11:51:53;;;;;;;2.63;1.30;;;14.10;99.90;;;;;;4999097;28;20223;-82
2023/11/23 11:54:22;;;;;;;2.00;1.00;;;14.00;99.90;;;;;;4983801;28;20215;-82
2023/11/23 11:56:49;;;;;;;3.17;0.87;;;14.00;99.90;;;;;;5000341;28;20223;-81
2023/11/23 11:59:20;;;;;;;2.73;0.70;;;14.10;99.90;;;;;;4973343;28;20244;-82
2023/11/23 12:01:47;;;;;;;0.60;0.50;;;14.10;99.90;;;;;;4984235;28;20227;-83
2023/11/23 12:04:18;;;;;;;1.97;1.67;;;14.10;99.90;;;;;;4983580;28;20710;-82
2023/11/23 12:06:45;;;;;;;9.53;1.13;;;14.20;99.90;;;;;;4974956;28;20277;-83
2023/11/23 12:09:17;;;;;;;0.50;0.50;;;14.20;99.90;;;;;;4978157;28;20231;-84
2023/11/23 12:11:43;;;;;;;0.57;0.57;;;14.20;99.90;;;;;;4990796;28;20248;-82
2023/11/23 12:14:10;;;;;;;1.93;1.33;;;14.20;99.90;;;;;;4983066;28;20190;-82
2023/11/23 12:16:36;;;;;;;3.40;0.93;;;14.20;99.90;;;;;;4981113;28;20230;-83
2023/11/23 12:19:13;;;;;;;1.97;1.83;;;14.10;99.90;;;;;;4969523;28;20711;-84
2023/11/23 12:21:38;;;;;;;1.13;1.03;;;14.10;99.90;;;;;;4973638;28;20241;-84
2023/11/23 12:24:07;;;;;;;2.47;0.93;;;14.10;99.90;;;;;;4964133;28;20223;-82
2023/11/23 12:26:33;;;;;;;16.10;1.27;;;14.10;99.90;;;;;;4970674;28;20249;-83
2023/11/23 12:28:59;;;;;;;8.50;1.13;;;14.10;99.90;;;;;;4967572;28;20643;-81
2023/11/23 12:31:24;;;;;;;0.53;0.53;;;14.00;99.90;;;;;;4964651;28;20595;-82
2023/11/23 12:33:50;;;;;;;1.13;0.67;;;14.10;99.90;;;;;;4975857;28;20236;-84
2023/11/23 12:36:16;;;;;;;1.93;0.73;;;14.10;99.90;;;;;;4985020;28;20566;-83
2023/11/23 12:38:42;;;;;;;2.37;1.57;;;14.10;99.90;;;;;;4967992;28;20215;-85
2023/11/23 12:41:08;;;;;;;2.17;0.80;;;14.10;99.90;;;;;;4988237;28;20187;-83